createdAt,value
2022-10-14T00:01:51.436Z,31.80
2022-10-14T00:04:19.620Z,41.13
2022-10-14T00:06:47.891Z,28.40
2022-10-14T00:09:18.286Z,24.30
2022-10-14T00:11:46.353Z,22.75
2022-10-14T00:14:16.658Z,24.45
2022-10-14T00:16:48.252Z,28.60
2022-10-14T00:19:17.169Z,24.35
2022-10-14T00:21:47.022Z,21.98
2022-10-14T00:24:16.387Z,21.38
2022-10-14T00:26:44.786Z,22.90
2022-10-14T00:29:18.097Z,19.90
2022-10-14T00:31:47.147Z,24.88
2022-10-14T00:34:17.539Z,19.98
2022-10-14T00:36:45.542Z,19.63
2022-10-14T00:39:19.614Z,20.83
2022-10-14T00:41:47.559Z,20.88
2022-10-14T00:44:16.296Z,22.65
2022-10-14T00:46:45.763Z,23.13
2022-10-14T00:49:17.027Z,22.52
2022-10-14T00:51:51.718Z,19.73
2022-10-14T00:54:21.938Z,22.15
2022-10-14T00:56:51.342Z,18.10
2022-10-14T00:59:19.590Z,17.67
2022-10-14T01:01:47.505Z,25.75
2022-10-14T01:04:15.533Z,23.48
2022-10-14T01:07:09.320Z,18.77
2022-10-14T01:09:43.776Z,20.88
2022-10-14T01:12:32.625Z,20.20
2022-10-14T01:15:28.930Z,16.80
2022-10-14T01:18:31.146Z,19.10
2022-10-14T01:21:02.717Z,21.98
2022-10-14T01:23:44.093Z,15.95
2022-10-14T01:26:15.546Z,16.15
2022-10-14T01:29:01.855Z,16.38
2022-10-14T01:31:32.723Z,21.95
2022-10-14T01:34:03.497Z,17.50
2022-10-14T01:36:37.942Z,14.48
2022-10-14T01:39:11.763Z,16.77
2022-10-14T01:41:42.052Z,13.80
2022-10-14T01:44:11.344Z,17.20
2022-10-14T01:46:42.406Z,13.27
2022-10-14T01:49:16.407Z,18.95
2022-10-14T01:51:48.157Z,21.08
2022-10-14T01:54:22.910Z,14.23
2022-10-14T01:56:50.891Z,18.23
2022-10-14T01:59:19.397Z,15.75
2022-10-14T02:01:47.792Z,18.95
2022-10-14T02:04:18.251Z,20.85
2022-10-14T02:06:54.947Z,13.90
2022-10-14T02:09:52.122Z,14.32
2022-10-14T02:12:38.889Z,18.80
2022-10-14T02:15:21.569Z,16.63
2022-10-14T02:17:55.955Z,22.08
2022-10-14T02:20:31.418Z,19.73
2022-10-14T02:23:07.031Z,17.92
2022-10-14T02:25:37.525Z,15.98
2022-10-14T02:28:08.173Z,19.00
2022-10-14T02:30:41.246Z,16.17
2022-10-14T02:33:10.724Z,15.60
2022-10-14T02:35:41.513Z,17.73
2022-10-14T02:38:09.440Z,18.02
2022-10-14T02:40:45.451Z,14.93
2022-10-14T02:43:13.655Z,19.08
2022-10-14T02:45:42.782Z,17.83
2022-10-14T02:48:11.585Z,16.65
2022-10-14T02:50:40.102Z,21.52
2022-10-14T02:53:09.358Z,21.10
2022-10-14T02:55:37.364Z,17.17
2022-10-14T02:58:08.575Z,20.08
2022-10-14T03:00:37.167Z,16.73
2022-10-14T03:03:05.446Z,15.27
2022-10-14T03:05:33.441Z,21.75
2022-10-14T03:08:06.518Z,13.55
2022-10-14T03:10:35.465Z,13.00
2022-10-14T03:13:04.190Z,20.48
2022-10-14T03:15:41.451Z,13.57
2022-10-14T03:18:11.551Z,15.65
2022-10-14T03:20:45.812Z,15.75
2022-10-14T03:23:19.471Z,13.55
2022-10-14T03:25:55.734Z,17.00
2022-10-14T03:28:29.471Z,18.40
2022-10-14T03:31:17.712Z,16.73
2022-10-14T03:34:09.210Z,17.98
2022-10-14T03:36:40.569Z,15.50
2022-10-14T03:39:12.595Z,20.63
2022-10-14T03:41:50.465Z,15.88
2022-10-14T03:44:29.679Z,14.73
2022-10-14T03:47:21.693Z,16.33
2022-10-14T03:49:56.520Z,13.95
2022-10-14T03:53:03.170Z,15.55
2022-10-14T03:55:42.338Z,22.65
2022-10-14T03:58:11.979Z,16.08
2022-10-14T04:00:55.073Z,12.77
2022-10-14T04:03:55.395Z,17.30
2022-10-14T04:06:25.694Z,15.88
2022-10-14T04:08:57.953Z,12.10
2022-10-14T04:11:31.796Z,15.75
2022-10-14T04:14:05.559Z,14.70
2022-10-14T04:16:46.071Z,15.80
2022-10-14T04:19:18.896Z,20.35
2022-10-14T04:21:46.954Z,17.17
2022-10-14T04:24:17.315Z,20.05
2022-10-14T04:29:35.582Z,18.45
2022-10-14T04:32:09.822Z,15.18
2022-10-14T04:34:38.621Z,15.02
2022-10-14T04:37:10.005Z,16.17
2022-10-14T04:39:50.149Z,18.63
2022-10-14T04:42:18.880Z,14.82
2022-10-14T04:44:51.688Z,16.00
2022-10-14T04:47:27.261Z,15.13
2022-10-14T04:50:00.563Z,21.52
2022-10-14T04:52:35.545Z,16.23
2022-10-14T04:55:09.928Z,12.60
2022-10-14T04:57:45.687Z,14.35
2022-10-14T05:00:16.682Z,12.98
2022-10-14T05:02:45.282Z,13.13
2022-10-14T05:05:17.633Z,14.27
2022-10-14T05:07:50.342Z,20.23
2022-10-14T05:10:42.943Z,15.90
2022-10-14T05:13:20.812Z,21.75
2022-10-14T05:16:03.126Z,18.73
2022-10-14T05:18:35.852Z,16.05
2022-10-14T05:21:13.006Z,14.65
2022-10-14T05:24:05.367Z,17.65
2022-10-14T05:26:46.630Z,16.85
2022-10-14T05:29:15.715Z,15.70
2022-10-14T05:31:44.304Z,19.70
2022-10-14T05:34:31.373Z,21.85
2022-10-14T05:37:00.202Z,19.67
2022-10-14T05:39:33.174Z,18.75
2022-10-14T05:42:04.269Z,18.00
2022-10-14T05:44:33.107Z,12.75
2022-10-14T05:47:00.975Z,15.68
2022-10-14T05:49:30.276Z,15.43
2022-10-14T05:52:00.486Z,15.65
2022-10-14T05:54:29.716Z,19.17
2022-10-14T05:56:59.641Z,14.48
2022-10-14T05:59:30.046Z,16.42
2022-10-14T06:01:59.508Z,15.80
2022-10-14T06:04:27.948Z,15.25
2022-10-14T06:06:59.160Z,15.85
2022-10-14T06:09:27.336Z,15.07
2022-10-14T06:12:04.424Z,14.07
2022-10-14T06:14:37.280Z,18.55
2022-10-14T06:17:08.783Z,11.23
2022-10-14T06:19:40.703Z,12.15
2022-10-14T06:22:08.689Z,8.63
2022-10-14T06:24:37.685Z,10.88
2022-10-14T06:27:10.579Z,13.18
2022-10-14T06:29:38.730Z,15.07
2022-10-14T06:32:07.430Z,15.63
2022-10-14T06:34:36.115Z,12.88
2022-10-14T06:37:07.040Z,17.05
2022-10-14T06:39:36.055Z,14.48
2022-10-14T06:42:13.175Z,13.18
2022-10-14T06:44:41.653Z,15.65
2022-10-14T06:47:10.935Z,12.02
2022-10-14T06:49:39.155Z,14.05
2022-10-14T06:52:07.288Z,11.77
2022-10-14T06:54:39.455Z,16.50
2022-10-14T06:57:08.671Z,10.57
2022-10-14T06:59:39.166Z,13.38
2022-10-14T07:02:07.271Z,11.13
2022-10-14T07:04:38.408Z,12.63
2022-10-14T07:07:16.247Z,12.45
2022-10-14T07:09:44.848Z,15.40
2022-10-14T07:12:14.584Z,22.27
2022-10-14T07:14:43.434Z,13.40
2022-10-14T07:17:13.326Z,13.98
2022-10-14T07:19:43.292Z,12.85
2022-10-14T07:22:11.245Z,13.85
2022-10-14T07:24:42.577Z,14.52
2022-10-14T07:27:16.292Z,17.30
2022-10-14T07:29:54.081Z,16.55
2022-10-14T07:32:27.971Z,15.95
2022-10-14T07:34:55.759Z,16.80
2022-10-14T07:37:24.115Z,19.33
2022-10-14T07:39:53.351Z,11.07
2022-10-14T07:42:21.629Z,15.75
2022-10-14T07:44:50.531Z,15.57
2022-10-14T07:47:19.415Z,13.35
2022-10-14T07:49:48.295Z,17.90
2022-10-14T07:52:19.747Z,14.85
2022-10-14T07:54:48.307Z,16.00
2022-10-14T07:57:16.935Z,17.10
2022-10-14T07:59:46.427Z,14.48
2022-10-14T08:02:14.889Z,16.42
2022-10-14T08:04:44.976Z,19.77
2022-10-14T08:07:15.328Z,13.48
2022-10-14T08:09:44.855Z,13.90
2022-10-14T08:12:55.039Z,13.95
2022-10-14T08:21:13.449Z,15.88
2022-10-14T08:23:46.335Z,12.15
2022-10-14T08:26:23.644Z,12.68
2022-10-14T08:29:06.749Z,16.13
2022-10-14T08:31:39.426Z,13.15
2022-10-14T08:34:28.837Z,13.40
2022-10-14T08:37:06.636Z,17.50
2022-10-14T08:39:36.307Z,17.23
2022-10-14T08:42:07.200Z,16.73
2022-10-14T08:44:36.001Z,13.65
2022-10-14T08:47:04.983Z,12.88
2022-10-14T08:50:02.172Z,16.48
2022-10-14T08:52:41.472Z,13.23
2022-10-14T08:55:25.055Z,14.52
2022-10-14T08:58:17.682Z,14.63
2022-10-14T09:00:47.771Z,12.98
2022-10-14T09:03:21.763Z,17.38
2022-10-14T09:05:58.279Z,12.35
2022-10-14T09:08:36.203Z,17.70
2022-10-14T09:11:06.716Z,9.82
2022-10-14T09:13:40.025Z,13.98
2022-10-14T09:16:15.380Z,13.35
2022-10-14T09:18:54.765Z,10.48
2022-10-14T09:21:53.235Z,17.30
2022-10-14T09:24:36.134Z,8.88
2022-10-14T09:27:08.168Z,14.95
2022-10-14T09:29:43.793Z,13.30
2022-10-14T09:32:30.114Z,15.77
2022-10-14T09:37:35.267Z,12.85
2022-10-14T09:40:15.011Z,11.35
2022-10-14T09:43:10.412Z,14.68
2022-10-14T09:45:50.599Z,13.35
2022-10-14T09:48:28.815Z,11.23
2022-10-14T09:50:59.137Z,11.02
2022-10-14T09:53:37.246Z,12.07
2022-10-14T09:56:07.443Z,17.63
2022-10-14T09:58:53.681Z,13.85
2022-10-14T10:01:23.523Z,9.57
2022-10-14T10:03:55.707Z,13.40
2022-10-14T10:06:27.511Z,10.18
2022-10-14T10:08:58.679Z,11.57
2022-10-14T10:11:39.342Z,14.57
2022-10-14T10:14:29.821Z,14.70
2022-10-14T10:17:10.517Z,17.05
2022-10-14T10:19:51.742Z,13.27
2022-10-14T10:22:26.828Z,17.25
2022-10-14T10:25:04.020Z,10.20
2022-10-14T10:27:36.863Z,17.48
2022-10-14T10:30:24.953Z,12.07
2022-10-14T10:33:03.701Z,12.68
2022-10-14T10:35:58.086Z,13.50
2022-10-14T10:38:37.167Z,12.10
2022-10-14T10:41:22.783Z,10.77
2022-10-14T10:44:31.597Z,10.15
2022-10-14T10:47:11.907Z,16.13
2022-10-14T10:50:17.917Z,13.90
2022-10-14T10:53:27.474Z,16.25
2022-10-14T10:56:18.871Z,16.95
2022-10-14T10:59:03.341Z,13.27
2022-10-14T11:01:59.860Z,16.67
2022-10-14T11:04:36.482Z,13.82
2022-10-14T11:07:27.171Z,15.93
2022-10-14T11:10:41.379Z,22.30
2022-10-14T11:13:30.818Z,12.98
2022-10-14T11:16:10.189Z,10.43
2022-10-14T11:18:49.920Z,13.00
2022-10-14T11:21:28.073Z,11.80
2022-10-14T11:24:00.768Z,12.98
2022-10-14T11:27:00.492Z,13.70
2022-10-14T11:29:46.980Z,11.30
2022-10-14T11:32:21.912Z,10.07
2022-10-14T11:34:58.861Z,12.48
2022-10-14T11:37:41.910Z,14.27
2022-10-14T11:40:30.634Z,12.55
2022-10-14T11:43:02.332Z,15.40
2022-10-14T11:45:46.995Z,21.88
2022-10-14T11:48:27.165Z,15.13
2022-10-14T11:51:03.888Z,13.60
2022-10-14T11:56:15.001Z,15.73
2022-10-14T11:58:44.316Z,14.32
2022-10-14T12:01:15.277Z,23.05
2022-10-14T12:03:48.798Z,18.02
2022-10-14T12:06:30.978Z,21.02
2022-10-14T12:09:28.013Z,16.63
2022-10-14T12:14:50.625Z,19.95
2022-10-14T12:17:47.091Z,13.10
2022-10-14T12:20:34.724Z,11.20
2022-10-14T12:24:44.844Z,16.45
2022-10-14T12:27:24.744Z,14.93
2022-10-14T12:30:03.123Z,16.38
2022-10-14T12:33:03.413Z,10.93
2022-10-14T12:35:46.555Z,12.23
2022-10-14T12:40:50.843Z,15.32
2022-10-14T12:43:26.553Z,11.88
2022-10-14T12:46:31.722Z,14.98
2022-10-14T12:49:20.010Z,13.88
2022-10-14T12:51:59.028Z,8.20
2022-10-14T12:55:09.811Z,11.43
2022-10-14T12:57:42.353Z,12.88
2022-10-14T13:00:23.200Z,11.70
2022-10-14T13:03:38.144Z,20.70
2022-10-14T13:06:27.233Z,11.07
2022-10-14T13:09:36.037Z,13.38
2022-10-14T13:12:32.641Z,8.57
2022-10-14T13:16:07.955Z,11.20
2022-10-14T13:19:38.127Z,11.38
2022-10-14T13:27:41.335Z,7.75
2022-10-14T13:30:56.444Z,12.25
2022-10-14T13:33:34.979Z,7.72
2022-10-14T13:36:16.739Z,9.95
2022-10-14T13:38:48.088Z,14.82
2022-10-14T13:41:18.927Z,8.55
2022-10-14T13:43:47.015Z,9.02
2022-10-14T13:46:36.809Z,13.23
2022-10-14T13:49:17.232Z,11.27
2022-10-14T13:51:48.573Z,15.80
2022-10-14T13:54:19.403Z,10.60
2022-10-14T13:57:48.213Z,11.50
2022-10-14T14:00:39.752Z,15.30
2022-10-14T14:02:56.716Z,11.45
2022-10-14T14:05:26.918Z,13.38
2022-10-14T14:11:18.225Z,13.13
2022-10-14T14:14:10.887Z,9.93
2022-10-14T14:19:26.758Z,7.85
2022-10-14T14:22:24.450Z,13.20
2022-10-14T14:24:53.105Z,6.70
2022-10-14T14:27:23.879Z,11.77
2022-10-14T14:29:53.080Z,11.95
2022-10-14T14:32:28.810Z,9.63
2022-10-14T14:34:56.695Z,16.70
2022-10-14T14:37:53.380Z,19.27
2022-10-14T14:40:29.146Z,26.52
2022-10-14T14:43:02.408Z,28.60
2022-10-14T14:45:44.156Z,23.08
2022-10-14T14:48:12.049Z,16.30
2022-10-14T14:50:43.250Z,28.63
2022-10-14T14:53:12.616Z,31.60
2022-10-14T14:55:46.954Z,28.33
2022-10-14T14:58:36.034Z,30.70
2022-10-14T15:01:06.721Z,36.47
2022-10-14T15:04:11.893Z,32.70
2022-10-14T15:06:39.819Z,25.45
2022-10-14T15:09:52.759Z,28.92
2022-10-14T15:12:27.028Z,30.90
2022-10-14T15:14:58.589Z,26.73
2022-10-14T15:17:40.328Z,24.90
2022-10-14T15:20:11.429Z,34.90
2022-10-14T15:22:43.754Z,42.92
2022-10-14T15:25:17.642Z,52.45
2022-10-14T15:27:53.764Z,73.30
2022-10-14T15:30:33.108Z,53.50
2022-10-14T15:33:19.295Z,56.38
2022-10-14T15:36:01.819Z,70.18
2022-10-14T15:38:33.148Z,59.70
2022-10-14T15:41:01.269Z,59.88
2022-10-14T15:43:29.228Z,63.38
2022-10-14T15:46:17.587Z,63.95
2022-10-14T15:48:55.074Z,68.40
2022-10-14T15:51:26.583Z,59.80
2022-10-14T15:53:54.443Z,72.03
2022-10-14T15:56:23.744Z,72.13
2022-10-14T15:58:57.589Z,68.00
2022-10-14T16:01:25.871Z,61.53
2022-10-14T16:03:55.249Z,64.32
2022-10-14T16:06:24.695Z,58.63
2022-10-14T16:08:52.959Z,64.10
2022-10-14T16:11:28.597Z,61.63
2022-10-14T16:14:31.054Z,60.03
2022-10-14T16:17:03.633Z,70.00
2022-10-14T16:19:33.771Z,62.78
2022-10-14T16:22:07.345Z,66.22
2022-10-14T16:24:39.697Z,64.15
2022-10-14T16:27:07.751Z,62.97
2022-10-14T16:29:37.507Z,62.90
2022-10-14T16:32:06.468Z,69.50
2022-10-14T16:34:34.915Z,74.70
2022-10-14T16:37:04.707Z,70.68
2022-10-14T16:39:32.931Z,65.75
2022-10-14T16:42:01.143Z,67.13
2022-10-14T16:44:31.514Z,61.33
2022-10-14T16:47:17.713Z,64.53
2022-10-14T16:49:49.333Z,62.67
2022-10-14T16:52:21.930Z,60.15
2022-10-14T16:54:50.502Z,58.58
2022-10-14T16:57:21.775Z,59.78
2022-10-14T16:59:56.580Z,56.58
2022-10-14T17:02:32.036Z,56.42
2022-10-14T17:05:01.646Z,55.97
2022-10-14T17:07:30.613Z,102.80
2022-10-14T17:09:58.635Z,71.65
2022-10-14T17:12:27.438Z,64.13
2022-10-14T17:14:55.656Z,65.28
2022-10-14T17:17:29.886Z,50.47
2022-10-14T17:20:37.934Z,66.13
2022-10-14T17:23:10.436Z,54.35
2022-10-14T17:25:49.374Z,52.78
2022-10-14T17:29:00.460Z,60.63
2022-10-14T17:32:06.284Z,57.65
2022-10-14T17:34:43.396Z,76.05
2022-10-14T17:37:21.059Z,93.80
2022-10-14T17:39:50.876Z,68.13
2022-10-14T17:42:20.282Z,65.00
2022-10-14T17:44:53.147Z,60.38
2022-10-14T17:47:24.759Z,58.85
2022-10-14T17:49:53.017Z,65.15
2022-10-14T17:52:20.964Z,63.25
2022-10-14T17:54:49.737Z,62.92
2022-10-14T17:57:17.751Z,58.50
2022-10-14T17:59:45.629Z,68.07
2022-10-14T18:02:17.457Z,61.83
2022-10-14T18:04:48.365Z,57.45
2022-10-14T18:07:16.568Z,58.58
2022-10-14T18:09:44.439Z,58.90
2022-10-14T18:12:38.103Z,56.80
2022-10-14T18:15:09.702Z,58.03
2022-10-14T18:17:39.743Z,52.35
2022-10-14T18:20:08.323Z,45.65
2022-10-14T18:22:37.580Z,39.65
2022-10-14T18:25:07.884Z,31.38
2022-10-14T18:27:35.927Z,49.40
2022-10-14T18:30:04.159Z,38.42
2022-10-14T18:32:32.818Z,36.50
2022-10-14T18:35:00.711Z,30.15
2022-10-14T18:37:34.997Z,27.75
2022-10-14T18:40:06.242Z,22.58
2022-10-14T18:42:34.571Z,29.83
2022-10-14T18:45:02.537Z,28.67
2022-10-14T18:47:30.753Z,33.03
2022-10-14T18:49:59.796Z,28.58
2022-10-14T18:52:33.504Z,28.98
2022-10-14T18:55:15.099Z,31.77
2022-10-14T18:57:43.221Z,32.20
2022-10-14T19:00:14.325Z,32.05
2022-10-14T19:02:43.752Z,31.10
2022-10-14T19:05:12.667Z,27.52
2022-10-14T19:07:41.479Z,37.65
2022-10-14T19:10:10.541Z,31.58
2022-10-14T19:12:42.828Z,39.05
2022-10-14T19:15:18.953Z,26.17
2022-10-14T19:17:52.251Z,32.03
2022-10-14T19:20:23.282Z,32.03
2022-10-14T19:22:56.413Z,25.23
2022-10-14T19:25:25.801Z,29.92
2022-10-14T19:27:55.940Z,28.27
2022-10-14T19:30:24.175Z,24.33
2022-10-14T19:32:53.231Z,24.48
2022-10-14T19:35:21.940Z,26.73
2022-10-14T19:37:50.163Z,25.73
2022-10-14T19:40:19.917Z,31.90
2022-10-14T19:42:51.748Z,30.35
2022-10-14T19:45:20.771Z,31.38
2022-10-14T19:47:55.687Z,32.05
2022-10-14T19:50:23.708Z,31.33
2022-10-14T19:52:51.830Z,31.83
2022-10-14T19:55:21.980Z,30.30
2022-10-14T19:57:50.164Z,28.70
2022-10-14T20:00:19.935Z,30.05
2022-10-14T20:02:49.146Z,26.75
2022-10-14T20:05:17.639Z,29.25
2022-10-14T20:07:46.813Z,32.33
2022-10-14T20:10:25.935Z,26.40
2022-10-14T20:12:54.183Z,28.27
2022-10-14T20:15:24.475Z,27.35
2022-10-14T20:17:57.271Z,29.60
2022-10-14T20:20:26.037Z,22.10
2022-10-14T20:22:53.986Z,27.40
2022-10-14T20:25:21.853Z,28.20
2022-10-14T20:27:51.967Z,22.20
2022-10-14T20:30:21.454Z,17.02
2022-10-14T20:32:49.260Z,23.85
2022-10-14T20:35:24.774Z,20.35
2022-10-14T20:37:53.881Z,19.50
2022-10-14T20:40:22.042Z,24.10
2022-10-14T20:42:50.387Z,19.90
2022-10-14T20:45:21.223Z,18.65
2022-10-14T20:47:53.371Z,37.55
2022-10-14T20:50:28.394Z,35.22
2022-10-14T20:53:04.416Z,29.85
2022-10-14T20:55:34.782Z,20.58
2022-10-14T20:58:03.036Z,27.83
2022-10-14T21:00:33.727Z,20.60
2022-10-14T21:03:01.880Z,15.00
2022-10-14T21:05:29.911Z,21.52
2022-10-14T21:07:58.681Z,16.25
2022-10-14T21:10:27.835Z,16.98
2022-10-14T21:12:55.721Z,16.05
2022-10-14T21:15:27.056Z,15.32
2022-10-14T21:17:55.237Z,15.80
2022-10-14T21:20:24.914Z,17.85
2022-10-14T21:23:01.808Z,20.25
2022-10-14T21:25:29.820Z,19.17
2022-10-14T21:27:58.101Z,18.50
2022-10-14T21:30:26.954Z,22.42
2022-10-14T21:32:55.051Z,20.20
2022-10-14T21:35:23.100Z,21.88
2022-10-14T21:37:54.707Z,17.77
2022-10-14T21:40:22.961Z,19.77
2022-10-14T21:42:50.933Z,22.17
2022-10-14T21:45:18.939Z,20.25
2022-10-14T21:47:46.850Z,28.50
2022-10-14T21:50:15.906Z,27.20
2022-10-14T21:52:44.047Z,22.65
2022-10-14T21:55:14.800Z,22.85
2022-10-14T21:57:43.491Z,26.33
2022-10-14T22:00:12.403Z,22.20
2022-10-14T22:02:40.268Z,24.05
2022-10-14T22:05:10.871Z,29.48
2022-10-14T22:07:39.125Z,23.05
2022-10-14T22:10:38.304Z,21.65
2022-10-14T22:13:13.795Z,18.48
2022-10-14T22:15:44.821Z,13.93
2022-10-14T22:18:12.637Z,13.85
2022-10-14T22:20:40.628Z,18.73
2022-10-14T22:23:08.704Z,20.02
2022-10-14T22:25:38.949Z,17.33
2022-10-14T22:28:06.909Z,19.52
2022-10-14T22:30:35.823Z,19.40
2022-10-14T22:33:04.061Z,17.98
2022-10-14T22:35:32.027Z,18.58
2022-10-14T22:38:00.843Z,17.88
2022-10-14T22:40:29.768Z,16.23
2022-10-14T22:42:58.125Z,18.55
2022-10-14T22:45:26.476Z,18.92
2022-10-14T22:47:54.416Z,19.63
2022-10-14T22:50:22.354Z,23.52
2022-10-14T22:52:50.359Z,23.40
2022-10-14T22:55:18.893Z,18.98
2022-10-14T22:57:47.139Z,27.77
2022-10-14T23:00:15.721Z,26.52
2022-10-14T23:02:43.695Z,29.42
2022-10-14T23:05:11.909Z,24.40
2022-10-14T23:07:40.386Z,29.17
2022-10-14T23:10:15.269Z,28.55
2022-10-14T23:12:44.697Z,30.98
2022-10-14T23:15:12.949Z,38.08
2022-10-14T23:17:42.819Z,39.03
2022-10-14T23:20:15.057Z,31.48
2022-10-14T23:22:46.364Z,37.85
2022-10-14T23:25:14.366Z,30.35
2022-10-14T23:27:42.348Z,34.90
2022-10-14T23:30:11.227Z,38.42
2022-10-14T23:32:39.261Z,38.70
2022-10-14T23:35:07.837Z,35.72
2022-10-14T23:37:36.420Z,36.35
2022-10-14T23:40:05.869Z,42.67
2022-10-14T23:42:35.001Z,43.60
2022-10-14T23:45:04.580Z,49.38
2022-10-14T23:47:33.413Z,42.85
2022-10-14T23:50:01.382Z,36.22
2022-10-14T23:52:29.408Z,38.22
2022-10-14T23:57:25.474Z,49.10
2022-10-14T23:59:54.102Z,42.20
